createdAt,value
2019-03-28T00:00:28.127Z,0.00
2019-03-28T00:01:28.196Z,0.00
2019-03-28T00:02:28.227Z,0.00
2019-03-28T00:03:28.273Z,0.00
2019-03-28T00:04:28.307Z,0.00
2019-03-28T00:05:28.366Z,0.00
2019-03-28T00:06:28.375Z,0.00
2019-03-28T00:07:28.446Z,0.00
2019-03-28T00:08:28.504Z,0.00
2019-03-28T00:09:28.559Z,0.00
2019-03-28T00:10:28.575Z,0.00
2019-03-28T00:11:28.639Z,0.00
2019-03-28T00:12:28.679Z,0.00
2019-03-28T00:13:28.735Z,0.00
2019-03-28T00:14:28.780Z,0.00
2019-03-28T00:15:28.790Z,0.00
2019-03-28T00:16:28.855Z,0.00
2019-03-28T00:17:28.905Z,0.00
2019-03-28T00:18:28.957Z,0.00
2019-03-28T00:19:28.982Z,0.00
2019-03-28T00:20:29.037Z,0.00
2019-03-28T00:21:29.083Z,0.00
2019-03-28T00:22:29.125Z,0.00
2019-03-28T00:23:29.180Z,0.00
2019-03-28T00:24:29.233Z,0.00
2019-03-28T00:25:29.307Z,0.00
2019-03-28T00:26:30.786Z,0.00
2019-03-28T00:27:29.367Z,0.00
2019-03-28T00:28:29.406Z,0.00
2019-03-28T00:29:29.452Z,0.00
2019-03-28T00:30:29.493Z,0.00
2019-03-28T00:31:29.539Z,0.00
2019-03-28T00:32:29.590Z,0.00
2019-03-28T00:33:29.637Z,0.00
2019-03-28T00:34:29.697Z,0.00
2019-03-28T00:35:29.722Z,0.00
2019-03-28T00:36:29.765Z,0.00
2019-03-28T00:37:29.802Z,0.00
2019-03-28T00:38:29.858Z,0.00
2019-03-28T00:39:29.883Z,0.00
2019-03-28T00:40:30.279Z,0.00
2019-03-28T00:41:30.002Z,0.00
2019-03-28T00:42:30.030Z,0.00
2019-03-28T00:43:30.096Z,0.00
2019-03-28T00:44:30.136Z,0.00
2019-03-28T00:45:30.187Z,0.00
2019-03-28T00:46:30.210Z,0.00
2019-03-28T00:47:30.268Z,0.00
2019-03-28T00:48:30.331Z,0.00
2019-03-28T00:49:30.357Z,0.00
2019-03-28T00:50:32.935Z,0.00
2019-03-28T00:51:30.457Z,0.00
2019-03-28T00:52:30.514Z,0.00
2019-03-28T00:53:31.153Z,0.00
2019-03-28T00:54:30.607Z,0.00
2019-03-28T00:55:30.651Z,0.00
2019-03-28T00:56:44.996Z,0.00
2019-03-28T00:57:30.720Z,0.00
2019-03-28T00:58:30.789Z,0.00
2019-03-28T00:59:31.450Z,0.00
2019-03-28T01:00:30.864Z,0.00
2019-03-28T01:01:31.192Z,0.00
2019-03-28T01:02:30.962Z,0.00
2019-03-28T01:03:31.054Z,0.00
2019-03-28T01:04:31.052Z,0.00
2019-03-28T01:05:31.090Z,0.00
2019-03-28T01:06:31.176Z,0.00
2019-03-28T01:07:31.202Z,0.00
2019-03-28T01:08:31.260Z,0.00
2019-03-28T01:09:31.425Z,0.00
2019-03-28T01:10:31.347Z,0.00
2019-03-28T01:11:31.389Z,0.00
2019-03-28T01:12:31.417Z,0.00
2019-03-28T01:13:31.469Z,0.00
2019-03-28T01:14:31.552Z,0.00
2019-03-28T01:15:31.552Z,0.00
2019-03-28T01:16:31.612Z,0.00
2019-03-28T01:17:31.651Z,0.00
2019-03-28T01:18:31.679Z,0.00
2019-03-28T01:19:31.764Z,0.00
2019-03-28T01:20:31.811Z,0.00
2019-03-28T01:21:31.844Z,0.00
2019-03-28T01:22:31.883Z,0.00
2019-03-28T01:23:31.938Z,0.00
2019-03-28T01:24:31.986Z,0.00
2019-03-28T01:25:32.029Z,0.00
2019-03-28T01:26:32.060Z,0.00
2019-03-28T01:27:32.114Z,0.00
2019-03-28T01:28:32.152Z,0.00
2019-03-28T01:29:32.306Z,0.00
2019-03-28T01:30:32.255Z,0.00
2019-03-28T01:31:32.316Z,0.00
2019-03-28T01:32:32.361Z,0.00
2019-03-28T01:33:32.400Z,0.00
2019-03-28T01:34:33.146Z,0.00
2019-03-28T01:35:32.464Z,0.00
2019-03-28T01:36:32.521Z,0.00
2019-03-28T01:37:32.582Z,0.00
2019-03-28T01:38:32.623Z,0.00
2019-03-28T01:39:32.668Z,0.00
2019-03-28T01:40:32.699Z,0.00
2019-03-28T01:41:32.770Z,0.00
2019-03-28T01:42:32.845Z,0.00
2019-03-28T01:43:32.857Z,0.00
2019-03-28T01:44:32.893Z,0.00
2019-03-28T01:45:33.324Z,0.00
2019-03-28T01:46:32.998Z,0.00
2019-03-28T01:47:33.049Z,0.00
2019-03-28T01:48:33.255Z,0.00
2019-03-28T01:49:33.120Z,0.00
2019-03-28T01:50:33.178Z,0.00
2019-03-28T01:51:33.226Z,0.00
2019-03-28T01:52:33.254Z,0.00
2019-03-28T01:53:33.294Z,0.00
2019-03-28T01:54:33.352Z,0.00
2019-03-28T01:55:33.401Z,0.00
2019-03-28T01:56:33.463Z,0.00
2019-03-28T01:57:33.482Z,0.00
2019-03-28T01:58:33.553Z,0.00
2019-03-28T01:59:33.630Z,0.00
2019-03-28T02:00:33.638Z,0.00
2019-03-28T02:01:33.673Z,0.00
2019-03-28T02:02:33.716Z,0.00
2019-03-28T02:03:33.749Z,0.00
2019-03-28T02:04:33.844Z,0.00
2019-03-28T02:05:33.871Z,0.00
2019-03-28T02:06:34.301Z,0.00
2019-03-28T02:07:33.946Z,0.00
2019-03-28T02:08:33.981Z,0.00
2019-03-28T02:09:34.049Z,0.00
2019-03-28T02:10:34.103Z,0.00
2019-03-28T02:11:34.147Z,0.00
2019-03-28T02:12:34.191Z,0.00
2019-03-28T02:13:34.230Z,0.00
2019-03-28T02:14:34.260Z,0.00
2019-03-28T02:15:34.322Z,0.00
2019-03-28T02:16:34.367Z,0.00
2019-03-28T02:17:34.407Z,0.00
2019-03-28T02:18:34.461Z,0.00
2019-03-28T02:19:34.492Z,0.00
2019-03-28T02:20:34.548Z,0.00
2019-03-28T02:21:34.606Z,0.00
2019-03-28T02:22:34.623Z,0.00
2019-03-28T02:23:34.694Z,0.00
2019-03-28T02:24:34.743Z,0.00
2019-03-28T02:25:34.759Z,0.00
2019-03-28T02:26:34.848Z,0.00
2019-03-28T02:27:34.899Z,0.00
2019-03-28T02:28:34.907Z,0.00
2019-03-28T02:29:35.045Z,0.00
2019-03-28T02:30:35.022Z,0.00
2019-03-28T02:31:35.041Z,0.00
2019-03-28T02:32:35.112Z,0.00
2019-03-28T02:33:35.138Z,0.00
2019-03-28T02:34:35.201Z,0.00
2019-03-28T02:35:35.227Z,0.00
2019-03-28T02:36:35.264Z,0.00
2019-03-28T02:37:35.338Z,0.00
2019-03-28T02:38:35.380Z,0.00
2019-03-28T02:39:35.430Z,0.00
2019-03-28T02:40:35.442Z,0.00
2019-03-28T02:41:35.529Z,0.00
2019-03-28T02:42:35.553Z,0.00
2019-03-28T02:43:35.609Z,0.00
2019-03-28T02:44:35.620Z,0.00
2019-03-28T02:45:35.709Z,0.00
2019-03-28T02:46:35.739Z,0.00
2019-03-28T02:47:36.119Z,0.00
2019-03-28T02:48:35.835Z,0.00
2019-03-28T02:49:35.874Z,0.00
2019-03-28T02:50:35.917Z,0.00
2019-03-28T02:51:35.957Z,0.00
2019-03-28T02:52:35.982Z,0.00
2019-03-28T02:53:36.053Z,0.00
2019-03-28T02:54:36.072Z,0.00
2019-03-28T02:55:36.136Z,0.00
2019-03-28T02:56:36.160Z,0.00
2019-03-28T02:57:41.744Z,0.00
2019-03-28T02:58:36.924Z,0.00
2019-03-28T02:59:36.336Z,0.00
2019-03-28T03:00:36.368Z,0.00
2019-03-28T03:01:36.390Z,0.00
2019-03-28T03:02:36.446Z,0.00
2019-03-28T03:03:36.481Z,0.00
2019-03-28T03:04:36.550Z,0.00
2019-03-28T03:05:36.598Z,0.00
2019-03-28T03:06:36.666Z,0.00
2019-03-28T03:07:36.684Z,0.00
2019-03-28T03:08:36.728Z,0.00
2019-03-28T03:09:36.761Z,0.00
2019-03-28T03:10:36.805Z,0.00
2019-03-28T03:11:36.860Z,0.00
2019-03-28T03:12:36.916Z,0.00
2019-03-28T03:13:36.966Z,0.00
2019-03-28T03:14:37.508Z,0.00
2019-03-28T03:15:37.031Z,0.00
2019-03-28T03:16:37.127Z,0.00
2019-03-28T03:17:37.128Z,0.00
2019-03-28T03:18:37.167Z,0.00
2019-03-28T03:19:37.222Z,0.00
2019-03-28T03:20:37.273Z,0.00
2019-03-28T03:21:37.318Z,0.00
2019-03-28T03:22:37.381Z,0.00
2019-03-28T03:23:37.409Z,0.00
2019-03-28T03:24:37.483Z,0.00
2019-03-28T03:25:37.479Z,0.00
2019-03-28T03:26:37.531Z,0.00
2019-03-28T03:27:37.604Z,0.00
2019-03-28T03:28:37.634Z,0.00
2019-03-28T03:29:37.733Z,0.00
2019-03-28T03:30:37.723Z,0.00
2019-03-28T03:31:37.773Z,0.00
2019-03-28T03:32:37.800Z,0.00
2019-03-28T03:33:38.011Z,0.00
2019-03-28T03:34:37.891Z,0.00
2019-03-28T03:35:37.939Z,0.00
2019-03-28T03:36:37.997Z,0.00
2019-03-28T03:37:38.035Z,0.00
2019-03-28T03:38:38.064Z,0.00
2019-03-28T03:39:38.141Z,0.00
2019-03-28T03:40:38.170Z,0.00
2019-03-28T03:41:38.212Z,0.00
2019-03-28T03:42:38.235Z,0.00
2019-03-28T03:43:38.318Z,0.00
2019-03-28T03:44:38.334Z,0.00
2019-03-28T03:45:38.401Z,0.00
2019-03-28T03:46:38.425Z,0.00
2019-03-28T03:47:38.509Z,0.00
2019-03-28T03:48:38.769Z,0.00
2019-03-28T03:49:38.573Z,0.00
2019-03-28T03:50:38.629Z,0.00
2019-03-28T03:51:38.680Z,0.00
2019-03-28T03:52:38.715Z,0.00
2019-03-28T03:53:38.804Z,0.00
2019-03-28T03:54:38.837Z,0.00
2019-03-28T03:55:38.853Z,0.00
2019-03-28T03:56:38.901Z,0.00
2019-03-28T03:57:38.952Z,0.00
2019-03-28T03:58:38.992Z,0.00
2019-03-28T03:59:39.002Z,0.00
2019-03-28T04:00:39.070Z,0.00
2019-03-28T04:01:39.132Z,0.00
2019-03-28T04:02:39.148Z,0.00
2019-03-28T04:03:39.202Z,0.00
2019-03-28T04:04:39.254Z,0.00
2019-03-28T04:05:39.345Z,0.00
2019-03-28T04:06:39.343Z,0.00
2019-03-28T04:07:39.401Z,0.00
2019-03-28T04:08:39.445Z,0.00
2019-03-28T04:09:39.478Z,0.00
2019-03-28T04:10:39.535Z,0.00
2019-03-28T04:11:39.559Z,0.00
2019-03-28T04:12:39.648Z,0.00
2019-03-28T04:13:39.651Z,0.00
2019-03-28T04:14:39.696Z,0.00
2019-03-28T04:15:39.726Z,0.00
2019-03-28T04:16:39.800Z,0.00
2019-03-28T04:17:39.848Z,0.00
2019-03-28T04:18:40.194Z,0.00
2019-03-28T04:19:39.943Z,0.00
2019-03-28T04:20:39.983Z,0.00
2019-03-28T04:21:40.024Z,0.00
2019-03-28T04:22:40.071Z,0.00
2019-03-28T04:23:40.114Z,0.00
2019-03-28T04:24:40.163Z,0.00
2019-03-28T04:25:40.247Z,0.00
2019-03-28T04:26:40.221Z,0.00
2019-03-28T04:27:40.306Z,0.00
2019-03-28T04:28:40.331Z,0.00
2019-03-28T04:29:40.355Z,0.00
2019-03-28T04:30:40.462Z,0.00
2019-03-28T04:31:40.467Z,0.00
2019-03-28T04:32:40.530Z,0.00
2019-03-28T04:33:40.566Z,0.00
2019-03-28T04:34:40.594Z,0.00
2019-03-28T04:35:40.636Z,0.00
2019-03-28T04:36:40.975Z,0.00
2019-03-28T04:37:40.734Z,0.00
2019-03-28T04:38:40.807Z,0.00
2019-03-28T04:39:40.817Z,0.00
2019-03-28T04:40:40.855Z,0.00
2019-03-28T04:41:40.908Z,0.00
2019-03-28T04:42:40.972Z,0.00
2019-03-28T04:43:40.999Z,0.00
2019-03-28T04:44:41.052Z,0.00
2019-03-28T04:45:41.085Z,0.00
2019-03-28T04:46:41.140Z,0.00
2019-03-28T04:47:41.230Z,0.00
2019-03-28T04:48:41.232Z,0.00
2019-03-28T04:49:41.309Z,0.00
2019-03-28T04:50:41.324Z,0.00
2019-03-28T04:51:41.378Z,0.00
2019-03-28T04:52:41.420Z,0.00
2019-03-28T04:53:41.469Z,0.00
2019-03-28T04:54:41.508Z,0.00
2019-03-28T04:55:41.560Z,0.00
2019-03-28T04:56:41.643Z,0.00
2019-03-28T04:57:41.635Z,0.00
2019-03-28T04:58:44.809Z,0.00
2019-03-28T04:59:41.740Z,0.00
2019-03-28T05:00:41.781Z,0.00
2019-03-28T05:01:41.809Z,0.00
2019-03-28T05:02:41.875Z,0.00
2019-03-28T05:03:41.914Z,0.00
2019-03-28T05:04:41.956Z,0.00
2019-03-28T05:05:41.993Z,0.00
2019-03-28T05:06:42.043Z,0.00
2019-03-28T05:07:42.404Z,0.00
2019-03-28T05:08:42.130Z,0.00
2019-03-28T05:09:42.179Z,0.00
2019-03-28T05:10:42.230Z,0.00
2019-03-28T05:11:42.281Z,0.00
2019-03-28T05:12:42.321Z,0.00
2019-03-28T05:13:42.374Z,0.00
2019-03-28T05:14:42.408Z,0.00
2019-03-28T05:15:42.458Z,0.00
2019-03-28T05:16:42.483Z,0.00
2019-03-28T05:17:42.528Z,0.00
2019-03-28T05:18:42.624Z,0.00
2019-03-28T05:19:42.626Z,0.00
2019-03-28T05:20:42.694Z,0.00
2019-03-28T05:21:42.732Z,0.00
2019-03-28T05:22:42.782Z,0.00
2019-03-28T05:23:42.822Z,0.00
2019-03-28T05:24:42.856Z,0.00
2019-03-28T05:25:42.934Z,0.00
2019-03-28T05:26:42.956Z,0.00
2019-03-28T05:27:43.014Z,0.00
2019-03-28T05:28:43.045Z,0.00
2019-03-28T05:29:43.091Z,0.00
2019-03-28T05:30:43.301Z,0.00
2019-03-28T05:31:43.211Z,0.00
2019-03-28T05:32:43.202Z,0.00
2019-03-28T05:33:43.309Z,0.00
2019-03-28T05:34:43.318Z,0.00
2019-03-28T05:35:43.358Z,0.00
2019-03-28T05:36:44.384Z,0.00
2019-03-28T05:37:43.436Z,0.00
2019-03-28T05:38:43.493Z,0.00
2019-03-28T05:39:43.535Z,0.00
2019-03-28T05:40:43.605Z,0.00
2019-03-28T05:41:43.609Z,0.00
2019-03-28T05:42:43.672Z,0.00
2019-03-28T05:43:45.432Z,0.00
2019-03-28T05:44:43.754Z,0.00
2019-03-28T05:45:46.257Z,0.00
2019-03-28T05:46:43.871Z,0.00
2019-03-28T05:47:43.883Z,0.00
2019-03-28T05:48:43.982Z,0.00
2019-03-28T05:49:43.978Z,0.00
2019-03-28T05:50:44.132Z,0.00
2019-03-28T05:51:44.046Z,0.00
2019-03-28T05:52:44.129Z,0.00
2019-03-28T05:53:44.210Z,0.00
2019-03-28T05:54:44.189Z,0.00
2019-03-28T05:55:44.245Z,0.00
2019-03-28T05:56:44.310Z,0.00
2019-03-28T05:57:44.347Z,0.00
2019-03-28T05:58:44.377Z,0.00
2019-03-28T05:59:45.321Z,0.00
2019-03-28T06:00:44.479Z,0.00
2019-03-28T06:01:44.525Z,0.00
2019-03-28T06:02:44.572Z,0.00
2019-03-28T06:03:44.596Z,0.00
2019-03-28T06:04:44.640Z,0.00
2019-03-28T06:05:44.831Z,0.00
2019-03-28T06:06:44.748Z,0.00
2019-03-28T06:07:44.800Z,0.00
2019-03-28T06:08:44.813Z,0.00
2019-03-28T06:09:44.863Z,0.00
2019-03-28T06:10:44.923Z,0.00
2019-03-28T06:11:44.963Z,0.00
2019-03-28T06:12:44.993Z,0.00
2019-03-28T06:13:45.065Z,0.00
2019-03-28T06:14:45.097Z,0.00
2019-03-28T06:15:45.139Z,0.00
2019-03-28T06:16:45.183Z,0.00
2019-03-28T06:17:45.241Z,0.00
2019-03-28T06:18:45.794Z,0.00
2019-03-28T06:19:45.317Z,0.00
2019-03-28T06:20:45.366Z,0.00
2019-03-28T06:21:45.414Z,0.00
2019-03-28T06:22:45.473Z,0.00
2019-03-28T06:23:45.503Z,0.00
2019-03-28T06:24:45.543Z,0.00
2019-03-28T06:25:45.597Z,0.00
2019-03-28T06:26:45.634Z,0.00
2019-03-28T06:27:45.693Z,0.00
2019-03-28T06:28:45.735Z,0.00
2019-03-28T06:29:45.764Z,0.00
2019-03-28T06:30:45.966Z,0.00
2019-03-28T06:31:55.138Z,0.00
2019-03-28T06:32:45.932Z,0.00
2019-03-28T06:33:45.970Z,0.00
2019-03-28T06:34:46.007Z,0.00
2019-03-28T06:35:46.056Z,0.00
2019-03-28T06:36:46.105Z,0.00
2019-03-28T06:37:46.124Z,0.00
2019-03-28T06:38:46.176Z,0.00
2019-03-28T06:39:46.235Z,0.00
2019-03-28T06:40:46.283Z,0.00
2019-03-28T06:41:46.325Z,0.00
2019-03-28T06:42:46.348Z,0.00
2019-03-28T06:43:46.412Z,0.00
2019-03-28T06:44:46.440Z,0.00
2019-03-28T06:45:46.476Z,0.00
2019-03-28T06:46:46.546Z,0.00
2019-03-28T06:47:46.600Z,0.00
2019-03-28T06:48:46.621Z,0.00
2019-03-28T06:49:46.690Z,0.00
2019-03-28T06:50:46.732Z,0.00
2019-03-28T06:51:46.777Z,0.00
2019-03-28T06:52:46.809Z,0.00
2019-03-28T06:53:46.858Z,0.00
2019-03-28T06:54:46.917Z,0.00
2019-03-28T06:55:46.946Z,0.00
2019-03-28T06:56:47.031Z,0.00
2019-03-28T06:57:47.026Z,0.00
2019-03-28T06:58:47.060Z,0.00
2019-03-28T06:59:47.152Z,0.00
2019-03-28T07:00:47.160Z,0.00
2019-03-28T07:01:47.191Z,0.00
2019-03-28T07:02:47.268Z,0.00
2019-03-28T07:03:47.567Z,0.00
2019-03-28T07:04:47.331Z,0.00
2019-03-28T07:05:48.336Z,0.00
2019-03-28T07:06:47.423Z,0.00
2019-03-28T07:07:47.461Z,0.00
2019-03-28T07:08:47.536Z,0.00
2019-03-28T07:09:47.565Z,0.00
2019-03-28T07:10:47.657Z,0.00
2019-03-28T07:11:47.676Z,0.00
2019-03-28T07:12:47.727Z,0.00
2019-03-28T07:13:47.738Z,0.00
2019-03-28T07:14:47.845Z,0.00
2019-03-28T07:15:47.881Z,0.00
2019-03-28T07:16:47.912Z,0.00
2019-03-28T07:17:47.981Z,0.00
2019-03-28T07:18:47.969Z,0.00
2019-03-28T07:19:48.071Z,0.00
2019-03-28T07:20:48.082Z,0.00
2019-03-28T07:21:48.109Z,0.00
2019-03-28T07:22:48.139Z,0.00
2019-03-28T07:23:48.199Z,0.00
2019-03-28T07:24:48.249Z,0.00
2019-03-28T07:25:48.287Z,0.00
2019-03-28T07:26:48.351Z,0.00
2019-03-28T07:27:48.400Z,0.00
2019-03-28T07:28:48.476Z,0.00
2019-03-28T07:29:51.029Z,0.00
2019-03-28T07:30:48.507Z,0.00
2019-03-28T07:31:48.566Z,0.00
2019-03-28T07:32:48.629Z,0.00
2019-03-28T07:33:48.641Z,0.00
2019-03-28T07:34:48.717Z,0.00
2019-03-28T07:35:48.746Z,0.00
2019-03-28T07:36:48.781Z,0.00
2019-03-28T07:37:48.844Z,0.00
2019-03-28T07:38:48.905Z,0.00
2019-03-28T07:39:48.929Z,0.00
2019-03-28T07:40:48.993Z,0.00
2019-03-28T07:41:49.014Z,0.00
2019-03-28T07:42:49.120Z,0.00
2019-03-28T07:43:49.127Z,0.00
2019-03-28T07:44:49.143Z,0.00
2019-03-28T07:45:49.199Z,0.00
2019-03-28T07:46:49.445Z,0.00
2019-03-28T07:47:49.289Z,0.00
2019-03-28T07:48:49.343Z,0.00
2019-03-28T07:49:49.403Z,0.00
2019-03-28T07:50:49.436Z,0.00
2019-03-28T07:51:49.481Z,0.00
2019-03-28T07:52:49.523Z,0.00
2019-03-28T07:53:49.541Z,0.00
2019-03-28T07:54:49.641Z,0.00
2019-03-28T07:55:49.638Z,0.00
2019-03-28T07:56:49.704Z,0.00
2019-03-28T07:57:49.754Z,0.00
2019-03-28T07:58:49.795Z,0.00
2019-03-28T08:00:03.261Z,0.00
2019-03-28T08:00:49.890Z,0.00
2019-03-28T08:01:49.920Z,0.00
2019-03-28T08:02:49.988Z,0.00
2019-03-28T08:03:50.032Z,0.00
2019-03-28T08:04:50.081Z,0.00
2019-03-28T08:05:50.114Z,0.00
2019-03-28T08:06:51.299Z,0.00
2019-03-28T08:07:50.197Z,0.00
2019-03-28T08:08:50.271Z,0.00
2019-03-28T08:09:50.307Z,0.00
2019-03-28T08:10:50.371Z,0.00
2019-03-28T08:11:50.400Z,0.00
2019-03-28T08:12:50.428Z,0.00
2019-03-28T08:13:50.470Z,0.00
2019-03-28T08:14:50.532Z,0.00
2019-03-28T08:15:50.550Z,0.00
2019-03-28T08:16:50.612Z,0.00
2019-03-28T08:17:50.660Z,0.00
2019-03-28T08:18:50.719Z,0.00
2019-03-28T08:19:50.789Z,0.00
2019-03-28T08:20:50.798Z,0.00
2019-03-28T08:21:50.858Z,0.00
2019-03-28T08:22:50.969Z,0.00
2019-03-28T08:23:50.946Z,0.00
2019-03-28T08:24:50.968Z,0.00
2019-03-28T08:25:51.014Z,0.00
2019-03-28T08:26:51.046Z,0.00
2019-03-28T08:27:51.156Z,0.00
2019-03-28T08:28:51.170Z,0.00
2019-03-28T08:29:51.198Z,0.00
2019-03-28T08:30:51.252Z,0.00
2019-03-28T08:31:51.338Z,0.00
2019-03-28T08:32:51.334Z,0.00
2019-03-28T08:33:52.379Z,0.00
2019-03-28T08:34:51.418Z,0.00
2019-03-28T08:35:51.469Z,0.00
2019-03-28T08:36:51.557Z,0.00
2019-03-28T08:37:51.610Z,0.00
2019-03-28T08:38:51.656Z,0.00
2019-03-28T08:39:51.688Z,0.00
2019-03-28T08:40:51.914Z,0.00
2019-03-28T08:41:51.747Z,0.00
2019-03-28T08:42:51.782Z,0.00
2019-03-28T08:43:51.859Z,0.00
2019-03-28T08:44:51.870Z,0.00
2019-03-28T08:45:51.920Z,0.00
2019-03-28T08:46:51.982Z,0.00
2019-03-28T08:47:52.056Z,0.00
2019-03-28T08:48:52.060Z,0.00
2019-03-28T08:49:52.136Z,0.00
2019-03-28T08:50:52.172Z,0.00
2019-03-28T08:51:52.196Z,0.00
2019-03-28T08:52:52.235Z,0.00
2019-03-28T08:53:52.283Z,0.00
2019-03-28T08:54:52.356Z,0.00
2019-03-28T08:55:52.369Z,0.00
2019-03-28T08:56:52.439Z,0.00
2019-03-28T08:57:52.473Z,0.00
2019-03-28T08:58:52.535Z,0.00
2019-03-28T08:59:53.097Z,0.00
2019-03-28T09:00:53.118Z,0.00
2019-03-28T09:01:52.658Z,0.00
2019-03-28T09:02:52.706Z,0.00
2019-03-28T09:03:52.766Z,0.00
2019-03-28T09:04:52.800Z,0.00
2019-03-28T09:05:52.826Z,0.00
2019-03-28T09:06:52.935Z,0.00
2019-03-28T09:07:52.966Z,0.00
2019-03-28T09:08:52.958Z,0.00
2019-03-28T09:09:53.018Z,5.63
2019-03-28T09:10:53.105Z,5.63
2019-03-28T09:11:53.135Z,5.63
2019-03-28T09:12:53.313Z,5.63
2019-03-28T09:13:53.214Z,5.63
2019-03-28T09:14:53.241Z,5.63
2019-03-28T09:15:53.355Z,11.25
2019-03-28T09:16:53.348Z,11.25
2019-03-28T09:17:53.385Z,11.25
2019-03-28T09:18:53.598Z,11.25
2019-03-28T09:19:53.481Z,16.88
2019-03-28T09:20:53.504Z,16.88
2019-03-28T09:21:53.621Z,22.50
2019-03-28T09:22:53.629Z,22.50
2019-03-28T09:23:53.668Z,22.50
2019-03-28T09:24:53.699Z,28.13
2019-03-28T09:25:53.736Z,28.13
2019-03-28T09:26:53.796Z,28.13
2019-03-28T09:27:53.847Z,33.75
2019-03-28T09:28:53.891Z,39.38
2019-03-28T09:29:53.928Z,39.38
2019-03-28T09:30:53.977Z,45.00
2019-03-28T09:31:54.067Z,50.63
2019-03-28T09:32:54.067Z,56.25
2019-03-28T09:33:54.099Z,61.88
2019-03-28T09:34:54.201Z,61.88
2019-03-28T09:35:54.180Z,61.88
2019-03-28T09:36:54.229Z,61.88
2019-03-28T09:37:54.295Z,61.88
2019-03-28T09:38:54.343Z,67.50
2019-03-28T09:39:54.391Z,67.50
2019-03-28T09:40:54.445Z,67.50
2019-03-28T09:41:54.531Z,67.50
2019-03-28T09:42:54.522Z,67.50
2019-03-28T09:43:55.950Z,73.13
2019-03-28T09:44:54.620Z,84.38
2019-03-28T09:45:54.642Z,84.38
2019-03-28T09:46:54.704Z,90.00
2019-03-28T09:47:54.759Z,84.38
2019-03-28T09:48:54.796Z,84.38
2019-03-28T09:49:54.831Z,78.75
2019-03-28T09:50:54.896Z,73.13
2019-03-28T09:51:54.948Z,73.13
2019-03-28T09:52:54.992Z,73.13
2019-03-28T09:53:55.054Z,90.00
2019-03-28T09:54:55.082Z,95.63
2019-03-28T09:55:55.112Z,95.63
2019-03-28T09:56:55.169Z,101.25
2019-03-28T09:57:55.219Z,101.25
2019-03-28T09:58:55.240Z,112.50
2019-03-28T09:59:55.273Z,140.63
2019-03-28T10:01:02.683Z,163.13
2019-03-28T10:01:55.391Z,163.13
2019-03-28T10:02:55.449Z,174.38
2019-03-28T10:03:55.498Z,168.75
2019-03-28T10:04:55.543Z,146.25
2019-03-28T10:05:55.583Z,151.88
2019-03-28T10:06:55.633Z,157.50
2019-03-28T10:07:55.676Z,168.75
2019-03-28T10:08:55.712Z,146.25
2019-03-28T10:09:55.970Z,123.75
2019-03-28T10:10:55.826Z,106.88
2019-03-28T10:11:55.875Z,112.50
2019-03-28T10:12:55.918Z,140.63
2019-03-28T10:13:55.956Z,157.50
2019-03-28T10:14:56.028Z,151.88
2019-03-28T10:15:57.416Z,129.38
2019-03-28T10:16:56.079Z,123.75
2019-03-28T10:17:56.133Z,123.75
2019-03-28T10:18:56.166Z,146.25
2019-03-28T10:19:56.218Z,168.75
2019-03-28T10:20:56.266Z,191.25
2019-03-28T10:21:56.314Z,202.50
2019-03-28T10:22:56.378Z,191.25
2019-03-28T10:23:56.438Z,146.25
2019-03-28T10:24:56.482Z,135.00
2019-03-28T10:25:56.522Z,174.38
2019-03-28T10:26:56.553Z,219.38
2019-03-28T10:27:56.607Z,427.50
2019-03-28T10:28:56.668Z,376.88
2019-03-28T10:29:56.693Z,410.63
2019-03-28T10:30:56.754Z,860.63
2019-03-28T10:31:56.810Z,714.38
2019-03-28T10:32:56.855Z,928.13
2019-03-28T10:33:56.911Z,866.25
2019-03-28T10:34:56.975Z,551.25
2019-03-28T10:35:56.983Z,213.75
2019-03-28T10:36:57.083Z,196.88
2019-03-28T10:37:57.088Z,191.25
2019-03-28T10:38:57.126Z,196.88
2019-03-28T10:39:57.176Z,196.88
2019-03-28T10:40:57.218Z,191.25
2019-03-28T10:41:57.254Z,219.38
2019-03-28T10:42:57.327Z,236.25
2019-03-28T10:43:57.388Z,264.38
2019-03-28T10:44:57.414Z,298.13
2019-03-28T10:45:57.454Z,320.63
2019-03-28T10:46:57.504Z,343.13
2019-03-28T10:47:57.554Z,360.00
2019-03-28T10:48:57.609Z,371.25
2019-03-28T10:49:57.650Z,371.25
2019-03-28T10:50:57.680Z,360.00
2019-03-28T10:51:57.781Z,360.00
2019-03-28T10:52:57.804Z,376.88
2019-03-28T10:53:57.870Z,399.38
2019-03-28T10:54:57.937Z,376.88
2019-03-28T10:55:57.959Z,348.75
2019-03-28T10:56:58.205Z,365.63
2019-03-28T10:57:58.580Z,433.13
2019-03-28T10:58:58.077Z,421.88
2019-03-28T10:59:58.147Z,438.75
2019-03-28T11:00:58.220Z,551.25
2019-03-28T11:01:58.218Z,697.50
2019-03-28T11:02:58.349Z,534.38
2019-03-28T11:03:58.339Z,950.63
2019-03-28T11:04:58.423Z,613.13
2019-03-28T11:05:58.439Z,596.25
2019-03-28T11:06:58.622Z,393.75
2019-03-28T11:07:58.511Z,315.00
2019-03-28T11:08:58.584Z,303.75
2019-03-28T11:09:58.592Z,320.63
2019-03-28T11:10:58.667Z,309.38
2019-03-28T11:11:58.726Z,298.13
2019-03-28T11:12:58.755Z,320.63
2019-03-28T11:13:58.805Z,365.63
2019-03-28T11:14:58.866Z,337.50
2019-03-28T11:15:58.888Z,298.13
2019-03-28T11:16:58.963Z,275.63
2019-03-28T11:17:59.004Z,264.38
2019-03-28T11:18:59.053Z,292.50
2019-03-28T11:19:59.113Z,326.25
2019-03-28T11:20:59.139Z,393.75
2019-03-28T11:21:59.214Z,461.25
2019-03-28T11:23:02.246Z,427.50
2019-03-28T11:23:59.298Z,337.50
2019-03-28T11:24:59.347Z,292.50
2019-03-28T11:25:59.395Z,286.88
2019-03-28T11:26:59.470Z,326.25
2019-03-28T11:27:59.488Z,343.13
2019-03-28T11:29:01.060Z,303.75
2019-03-28T11:29:59.729Z,275.63
2019-03-28T11:30:59.650Z,298.13
2019-03-28T11:31:59.692Z,303.75
2019-03-28T11:32:59.729Z,320.63
2019-03-28T11:33:59.797Z,292.50
2019-03-28T11:34:59.839Z,275.63
2019-03-28T11:35:59.882Z,281.25
2019-03-28T11:36:59.937Z,348.75
2019-03-28T11:37:59.984Z,393.75
2019-03-28T11:39:02.777Z,416.25
2019-03-28T11:40:00.082Z,399.38
2019-03-28T11:41:00.133Z,382.50
2019-03-28T11:42:00.522Z,354.38
2019-03-28T11:43:00.221Z,371.25
2019-03-28T11:44:00.272Z,438.75
2019-03-28T11:45:00.461Z,489.38
2019-03-28T11:46:00.382Z,495.00
2019-03-28T11:47:00.414Z,483.75
2019-03-28T11:48:00.477Z,421.88
2019-03-28T11:49:00.513Z,427.50
2019-03-28T11:50:00.564Z,444.38
2019-03-28T11:51:00.654Z,416.25
2019-03-28T11:52:00.713Z,421.88
2019-03-28T11:53:00.720Z,461.25
2019-03-28T11:54:00.749Z,472.50
2019-03-28T11:55:00.809Z,528.75
2019-03-28T11:56:00.860Z,573.75
2019-03-28T11:57:00.898Z,635.63
2019-03-28T11:58:00.972Z,843.75
2019-03-28T11:59:04.232Z,967.50
2019-03-28T12:00:01.433Z,888.75
2019-03-28T12:01:01.115Z,838.13
2019-03-28T12:02:18.674Z,849.38
2019-03-28T12:03:01.219Z,877.50
2019-03-28T12:04:01.260Z,838.13
2019-03-28T12:05:01.303Z,826.88
2019-03-28T12:06:01.355Z,838.13
2019-03-28T12:07:01.418Z,866.25
2019-03-28T12:08:01.463Z,961.88
2019-03-28T12:09:01.516Z,1136.25
2019-03-28T12:10:01.541Z,995.63
2019-03-28T12:11:01.643Z,911.25
2019-03-28T12:12:01.664Z,883.13
2019-03-28T12:13:01.719Z,770.63
2019-03-28T12:14:01.771Z,680.63
2019-03-28T12:15:01.823Z,596.25
2019-03-28T12:16:01.864Z,545.63
2019-03-28T12:17:01.930Z,506.25
2019-03-28T12:18:01.977Z,483.75
2019-03-28T12:19:02.034Z,500.63
2019-03-28T12:20:02.073Z,551.25
2019-03-28T12:21:02.160Z,556.88
2019-03-28T12:22:02.165Z,534.38
2019-03-28T12:23:02.237Z,511.88
2019-03-28T12:24:02.318Z,500.63
2019-03-28T12:25:02.326Z,506.25
2019-03-28T12:26:02.367Z,461.25
2019-03-28T12:27:02.451Z,444.38
2019-03-28T12:28:02.502Z,433.13
2019-03-28T12:29:05.677Z,410.63
2019-03-28T12:30:02.600Z,365.63
2019-03-28T12:31:02.685Z,303.75
2019-03-28T12:32:13.426Z,264.38
2019-03-28T12:33:02.731Z,275.63
2019-03-28T12:34:02.833Z,337.50
2019-03-28T12:35:02.877Z,455.63
2019-03-28T12:36:02.945Z,534.38
2019-03-28T12:37:02.945Z,540.00
2019-03-28T12:38:03.007Z,568.13
2019-03-28T12:39:03.042Z,551.25
2019-03-28T12:40:03.072Z,517.50
2019-03-28T12:41:03.177Z,461.25
2019-03-28T12:42:03.188Z,393.75
2019-03-28T12:43:03.287Z,331.88
2019-03-28T12:44:03.300Z,292.50
2019-03-28T12:45:03.338Z,270.00
2019-03-28T12:46:03.396Z,270.00
2019-03-28T12:47:03.435Z,286.88
2019-03-28T12:48:03.482Z,315.00
2019-03-28T12:49:03.523Z,326.25
2019-03-28T12:50:03.600Z,315.00
2019-03-28T12:51:03.635Z,298.13
2019-03-28T12:52:03.699Z,270.00
2019-03-28T12:53:03.922Z,241.88
2019-03-28T12:54:03.792Z,230.63
2019-03-28T12:55:03.851Z,236.25
2019-03-28T12:56:03.909Z,258.75
2019-03-28T12:57:04.886Z,286.88
2019-03-28T12:58:03.974Z,309.38
2019-03-28T12:59:04.044Z,320.63
2019-03-28T13:00:04.090Z,309.38
2019-03-28T13:01:04.159Z,275.63
2019-03-28T13:02:04.194Z,241.88
2019-03-28T13:03:04.228Z,219.38
2019-03-28T13:04:04.327Z,213.75
2019-03-28T13:05:04.334Z,208.13